Saint Louis, Missouri
Traffic Map
Current Weather Conditions
Saint Louis, Missouri
Clear
Clear
59°
Feels Like: 59°
Wind Chill: 59° Ceiling: Unl
Heat Index: 59° Visibility: 10mi
Dew Point: 49° Wind: 0mph
Humidity: 69% Direction: ° ()
Pressure: 30.16in Gusts: 0mph
Raw Report DataKCPS 250753Z AUTO 00000KT 10SM CLR 15/09 A3016 RMK AO2 SLP210 T01500094
Traffic Incident Summary
Active as of:
Severity:
Category:
InformationThere was an issue retrieving the traffic information for this location. Please try a different location or try again shortly.
Advertisements
Track Severe Weather on mobile